Time;durP1;ratioP1;P1;durP2;ratioP2;P2;SDS_P1;SDS_P2;PMS_P1;PMS_P2;Temp;Humidity;BMP_temperature;BMP_pressure;BME280_temperature;BME280_humidity;BME280_pressure;Samples;Min_cycle;Max_cycle;Signal;HPM_P1;HPM_P2
2023/01/23 00:01:21;;;;;;;41.92;32.97;;;-0.10;99.90;;;;;;5093879;28;20043;-62
2023/01/23 00:03:47;;;;;;;46.15;35.53;;;-0.10;99.90;;;;;;5094034;28;20111;-62
2023/01/23 00:06:14;;;;;;;51.25;36.25;;;-0.10;99.90;;;;;;5093787;28;20135;-61
2023/01/23 00:08:43;;;;;;;46.50;33.13;;;-0.10;99.90;;;;;;5093398;28;20069;-62
2023/01/23 00:11:12;;;;;;;52.75;38.47;;;-0.20;99.90;;;;;;5093533;28;20497;-62
2023/01/23 00:13:38;;;;;;;54.53;41.35;;;-0.20;99.90;;;;;;5093609;28;20500;-62
2023/01/23 00:16:15;;;;;;;48.20;34.30;;;-0.30;99.90;;;;;;5093556;28;20031;-62
2023/01/23 00:18:40;;;;;;;47.45;37.05;;;-0.20;99.90;;;;;;5093798;28;20032;-62
2023/01/23 00:21:09;;;;;;;43.47;32.30;;;-0.30;99.90;;;;;;5093591;28;20084;-63
2023/01/23 00:23:35;;;;;;;49.10;38.65;;;-0.50;99.90;;;;;;5093018;28;20024;-62
2023/01/23 00:26:06;;;;;;;55.95;42.03;;;-0.60;99.90;;;;;;5093285;28;20035;-62
2023/01/23 00:28:32;;;;;;;52.28;41.55;;;-0.60;99.90;;;;;;5093331;28;20027;-62
2023/01/23 00:31:05;;;;;;;46.55;36.38;;;-0.80;99.90;;;;;;5093250;28;20031;-62
2023/01/23 00:33:31;;;;;;;48.45;37.17;;;-0.80;99.90;;;;;;5093212;28;20027;-62
2023/01/23 00:35:57;;;;;;;47.42;36.33;;;-0.90;99.90;;;;;;5093000;28;20032;-62
2023/01/23 00:38:22;;;;;;;49.35;36.75;;;-0.90;99.90;;;;;;5092636;28;20036;-62
2023/01/23 00:40:48;;;;;;;44.00;32.40;;;-1.00;99.90;;;;;;5093105;28;20030;-62
2023/01/23 00:43:14;;;;;;;49.40;35.83;;;-1.10;99.90;;;;;;5093343;28;20412;-62
2023/01/23 00:45:39;;;;;;;45.88;34.50;;;-1.10;99.90;;;;;;5093041;28;20091;-63
2023/01/23 00:48:05;;;;;;;44.50;31.98;;;-1.10;99.90;;;;;;5092843;28;20020;-63
2023/01/23 00:50:31;;;;;;;44.70;33.97;;;-1.20;99.90;;;;;;5093075;28;20141;-63
2023/01/23 00:52:57;;;;;;;44.03;34.55;;;-1.20;99.90;;;;;;5092304;28;20023;-62
2023/01/23 00:55:22;;;;;;;58.28;45.28;;;-1.40;99.90;;;;;;5092724;28;20028;-62
2023/01/23 00:57:48;;;;;;;46.08;34.15;;;-1.40;99.90;;;;;;5092840;28;20036;-62
2023/01/23 01:00:14;;;;;;;52.88;37.22;;;-1.40;99.90;;;;;;5092806;28;20475;-62
2023/01/23 01:02:40;;;;;;;45.65;33.92;;;-1.40;99.90;;;;;;5092648;28;20412;-63
2023/01/23 01:05:06;;;;;;;49.88;35.08;;;-1.40;99.90;;;;;;5092589;28;20054;-62
2023/01/23 01:07:32;;;;;;;51.25;35.55;;;-1.50;99.90;;;;;;5092386;28;20039;-63
2023/01/23 01:09:57;;;;;;;82.78;57.08;;;-1.60;99.90;;;;;;5091261;28;20040;-62
2023/01/23 01:12:23;;;;;;;70.43;52.88;;;-1.50;99.90;;;;;;5092637;28;20028;-62
2023/01/23 01:14:49;;;;;;;55.22;38.83;;;-1.50;99.90;;;;;;5092498;28;20109;-62
2023/01/23 01:17:14;;;;;;;58.45;41.15;;;-1.50;99.90;;;;;;5092304;28;20039;-62
2023/01/23 01:19:40;;;;;;;58.30;40.75;;;-1.50;99.90;;;;;;5092141;28;20105;-61
2023/01/23 01:22:06;;;;;;;51.42;34.55;;;-1.50;99.90;;;;;;5092722;28;20039;-62
2023/01/23 01:24:31;;;;;;;52.55;38.33;;;-1.40;99.90;;;;;;5092387;28;20028;-62
2023/01/23 01:26:57;;;;;;;87.15;57.90;;;-1.50;99.90;;;;;;5092375;28;20028;-62
2023/01/23 01:29:23;;;;;;;82.80;47.45;;;-1.50;99.90;;;;;;5092286;28;20570;-63
2023/01/23 01:31:49;;;;;;;59.55;37.95;;;-1.60;99.90;;;;;;5092367;28;20028;-62
2023/01/23 01:34:14;;;;;;;56.38;37.55;;;-1.60;99.90;;;;;;5091882;28;20032;-62
2023/01/23 01:36:40;;;;;;;56.80;39.15;;;-1.70;99.90;;;;;;5092239;28;20380;-62
2023/01/23 01:39:06;;;;;;;55.78;38.10;;;-1.70;99.90;;;;;;5092555;28;20039;-62
2023/01/23 01:41:32;;;;;;;52.28;38.97;;;-1.70;99.90;;;;;;5092468;28;20031;-62
2023/01/23 01:43:58;;;;;;;46.25;34.45;;;-1.70;99.90;;;;;;5092187;28;20050;-62
2023/01/23 01:46:28;;;;;;;55.33;39.35;;;-1.90;99.90;;;;;;5092022;28;20077;-62
2023/01/23 01:49:06;;;;;;;50.33;37.35;;;-1.80;99.90;;;;;;5091731;28;20027;-62
2023/01/23 01:51:38;;;;;;;54.13;37.13;;;-1.70;99.90;;;;;;5092157;28;20081;-62
2023/01/23 01:54:09;;;;;;;51.33;35.75;;;-1.80;99.90;;;;;;5092399;28;20024;-62
2023/01/23 01:56:43;;;;;;;48.10;33.00;;;-1.90;99.90;;;;;;5092126;28;20028;-63
2023/01/23 01:59:10;;;;;;;47.17;31.95;;;-2.00;99.90;;;;;;5092055;28;20036;-62
2023/01/23 02:01:37;;;;;;;50.38;34.78;;;-2.10;99.90;;;;;;5092029;28;20020;-62
2023/01/23 02:04:03;;;;;;;49.72;34.10;;;-2.20;99.90;;;;;;5091699;28;20088;-62
2023/01/23 02:06:29;;;;;;;53.28;36.05;;;-2.30;99.90;;;;;;5092026;28;20024;-62
2023/01/23 02:09:11;;;;;;;55.00;35.95;;;-2.50;99.90;;;;;;5095506;28;20065;-61
2023/01/23 02:11:36;;;;;;;55.17;35.20;;;-2.20;99.90;;;;;;5094627;28;20024;-62
2023/01/23 02:14:02;;;;;;;55.42;36.35;;;-2.10;99.90;;;;;;5095882;28;20039;-62
2023/01/23 02:16:32;;;;;;;61.97;41.47;;;-2.10;99.90;;;;;;5096211;28;20073;-63
2023/01/23 02:19:03;;;;;;;78.88;50.25;;;-2.20;99.90;;;;;;5095457;28;20031;-62
2023/01/23 02:21:29;;;;;;;67.60;42.35;;;-2.30;99.90;;;;;;5095758;28;20028;-62
2023/01/23 02:24:07;;;;;;;59.70;38.40;;;-2.30;99.90;;;;;;5096047;28;20397;-62
2023/01/23 02:26:39;;;;;;;56.08;37.75;;;-2.40;99.90;;;;;;5095621;28;20032;-62
2023/01/23 02:29:06;;;;;;;58.70;37.23;;;-2.50;99.90;;;;;;5095640;28;20103;-61
2023/01/23 02:31:32;;;;;;;58.83;37.35;;;-2.50;99.90;;;;;;5095633;28;20345;-62
2023/01/23 02:33:58;;;;;;;122.15;75.85;;;-2.70;99.90;;;;;;5095039;28;20089;-62
2023/01/23 02:36:27;;;;;;;109.50;69.72;;;-2.70;99.90;;;;;;5095543;28;20035;-62
2023/01/23 02:39:17;;;;;;;101.32;61.55;;;-2.80;99.90;;;;;;5095676;28;20036;-62
2023/01/23 02:41:48;;;;;;;76.32;46.58;;;-2.90;99.90;;;;;;5095911;28;20022;-62
2023/01/23 02:44:26;;;;;;;76.43;48.85;;;-2.90;99.90;;;;;;5095305;28;20081;-62
2023/01/23 02:46:53;;;;;;;76.20;47.67;;;-2.90;99.90;;;;;;5095071;28;20399;-62
2023/01/23 02:49:20;;;;;;;71.50;47.70;;;-2.80;99.90;;;;;;5095253;28;20024;-61
2023/01/23 02:51:47;;;;;;;81.97;51.25;;;-2.80;99.90;;;;;;5095392;28;20031;-62
2023/01/23 02:54:13;;;;;;;61.53;40.00;;;-2.80;99.90;;;;;;5093750;28;20449;-62
2023/01/23 02:56:40;;;;;;;67.40;41.45;;;-2.90;99.90;;;;;;5095023;28;20020;-62
2023/01/23 03:01:51;;;;;;;58.25;38.00;;;-3.10;99.90;;;;;;5095166;28;20085;-62
2023/01/23 03:04:17;;;;;;;62.30;39.92;;;-3.10;99.90;;;;;;5094918;28;20375;-62
2023/01/23 03:06:42;;;;;;;67.03;42.05;;;-3.00;99.90;;;;;;5094594;28;20107;-61
2023/01/23 03:09:10;;;;;;;63.65;40.58;;;-2.60;99.90;;;;;;5095167;28;20062;-62
2023/01/23 03:11:38;;;;;;;65.28;40.78;;;-2.70;99.90;;;;;;5093598;28;20035;-61
2023/01/23 03:14:07;;;;;;;61.28;39.70;;;-2.70;99.90;;;;;;5094811;28;20032;-62
2023/01/23 03:16:33;;;;;;;137.18;81.57;;;-2.60;99.90;;;;;;5094468;28;20116;-63
2023/01/23 03:19:03;;;;;;;66.07;44.08;;;-2.40;99.90;;;;;;5093438;28;20094;-62
2023/01/23 03:21:31;;;;;;;55.83;37.53;;;-2.50;99.90;;;;;;5095041;28;20095;-62
2023/01/23 03:23:57;;;;;;;50.60;35.22;;;-2.40;99.90;;;;;;5094507;28;20039;-62
2023/01/23 03:26:23;;;;;;;94.63;65.00;;;-2.50;99.90;;;;;;5094587;28;20024;-62
2023/01/23 03:31:33;;;;;;;54.25;37.00;;;-2.00;99.90;;;;;;5094348;28;20046;-61
2023/01/23 03:33:59;;;;;;;49.97;36.38;;;-1.70;99.90;;;;;;5094438;28;20024;-62
2023/01/23 03:36:24;;;;;;;48.97;33.47;;;-1.50;99.90;;;;;;5093482;28;20040;-62
2023/01/23 03:41:37;;;;;;;50.20;33.95;;;-1.40;99.90;;;;;;5094281;28;20035;-62
2023/01/23 03:44:02;;;;;;;49.88;33.63;;;-1.40;99.90;;;;;;5094154;28;20054;-62
2023/01/23 03:46:28;;;;;;;48.95;35.45;;;-1.30;99.90;;;;;;5093706;28;20520;-62
2023/01/23 03:48:54;;;;;;;50.33;35.50;;;-1.30;99.90;;;;;;5094201;28;20136;-61
2023/01/23 03:51:19;;;;;;;49.35;36.67;;;-1.30;99.90;;;;;;5094113;28;20069;-62
2023/01/23 03:53:45;;;;;;;45.33;33.70;;;-1.10;99.90;;;;;;5094077;28;20491;-61
2023/01/23 03:56:11;;;;;;;45.78;33.63;;;-1.00;99.90;;;;;;5093992;28;20023;-61
2023/01/23 03:58:36;;;;;;;45.95;33.53;;;-1.10;99.90;;;;;;5093786;28;20115;-61
2023/01/23 04:01:06;;;;;;;42.75;32.60;;;-1.00;99.90;;;;;;5093465;28;20437;-62
2023/01/23 04:03:32;;;;;;;43.45;33.00;;;-0.90;99.90;;;;;;5093926;28;20019;-62
2023/01/23 04:05:58;;;;;;;43.58;32.60;;;-0.90;99.90;;;;;;5092752;28;20023;-61
2023/01/23 04:08:24;;;;;;;40.55;32.60;;;-0.90;99.90;;;;;;5093670;28;20024;-62
2023/01/23 04:10:50;;;;;;;42.65;32.85;;;-0.90;99.90;;;;;;5093502;28;20052;-61
2023/01/23 04:13:16;;;;;;;42.20;33.38;;;-0.80;99.90;;;;;;5093656;28;20099;-61
2023/01/23 04:15:42;;;;;;;39.47;31.33;;;-0.90;99.90;;;;;;5093066;28;20502;-62
2023/01/23 04:18:07;;;;;;;42.33;32.88;;;-0.90;99.90;;;;;;5093829;28;20036;-62
2023/01/23 04:20:33;;;;;;;39.28;31.58;;;-0.80;99.90;;;;;;5093553;28;20024;-62
2023/01/23 04:22:59;;;;;;;41.28;32.53;;;-0.80;99.90;;;;;;5093512;28;20397;-62
2023/01/23 04:25:25;;;;;;;41.33;32.05;;;-0.80;99.90;;;;;;5093341;28;20024;-62
2023/01/23 04:27:50;;;;;;;39.65;31.02;;;-0.80;99.90;;;;;;5093374;28;20103;-62
2023/01/23 04:30:16;;;;;;;39.55;30.75;;;-0.70;99.90;;;;;;5092518;28;20028;-61
2023/01/23 04:32:42;;;;;;;39.13;29.65;;;-0.70;99.90;;;;;;5093326;28;20042;-62
2023/01/23 04:35:08;;;;;;;39.53;30.58;;;-0.60;99.90;;;;;;5093383;28;20035;-61
2023/01/23 04:37:34;;;;;;;38.97;30.00;;;-0.70;99.90;;;;;;5093032;28;20099;-62
2023/01/23 04:39:59;;;;;;;36.35;27.63;;;-0.60;99.90;;;;;;5093551;28;20106;-62
2023/01/23 04:42:25;;;;;;;37.13;28.98;;;-0.50;99.90;;;;;;5093057;28;20021;-61
2023/01/23 04:44:51;;;;;;;34.35;26.98;;;-0.50;99.90;;;;;;5092659;28;20504;-62
2023/01/23 04:47:16;;;;;;;36.40;27.33;;;-0.50;99.90;;;;;;5093300;28;20021;-61
2023/01/23 04:49:42;;;;;;;33.72;27.85;;;-0.50;99.90;;;;;;5093004;28;20511;-62
2023/01/23 04:52:08;;;;;;;32.55;26.77;;;-0.30;99.90;;;;;;5093020;28;20050;-61
2023/01/23 04:54:33;;;;;;;34.15;26.13;;;-0.30;99.90;;;;;;5091541;28;20072;-62
2023/01/23 04:56:59;;;;;;;29.95;26.30;;;-0.40;99.90;;;;;;5092828;28;20039;-61
2023/01/23 04:59:25;;;;;;;31.38;25.67;;;-0.30;99.90;;;;;;5092466;28;20024;-61
2023/01/23 05:01:50;;;;;;;31.10;25.05;;;-0.40;99.90;;;;;;5092849;28;20027;-62
2023/01/23 05:04:16;;;;;;;28.90;23.20;;;-0.40;99.90;;;;;;5092842;28;20393;-61
2023/01/23 05:06:42;;;;;;;29.45;23.00;;;-0.20;99.90;;;;;;5092753;28;20024;-62
2023/01/23 05:09:07;;;;;;;27.45;23.02;;;-0.10;99.90;;;;;;5092715;28;20459;-61
2023/01/23 05:11:33;;;;;;;29.27;24.52;;;-0.10;99.90;;;;;;5092678;28;20020;-61
2023/01/23 05:13:59;;;;;;;30.48;22.67;;;-0.20;99.90;;;;;;5092338;28;20111;-62
2023/01/23 05:16:25;;;;;;;27.98;23.38;;;-0.10;99.90;;;;;;5092651;28;20035;-61
2023/01/23 05:18:50;;;;;;;26.88;22.90;;;-0.10;99.90;;;;;;5092862;28;20046;-61
2023/01/23 05:21:16;;;;;;;31.48;24.20;;;-0.10;99.90;;;;;;5092453;28;20450;-61
2023/01/23 05:23:42;;;;;;;27.15;24.08;;;-0.10;99.90;;;;;;5092486;28;20032;-61
2023/01/23 05:26:07;;;;;;;28.80;23.85;;;0.00;99.90;;;;;;5092522;28;20538;-66
2023/01/23 05:28:33;;;;;;;27.83;23.30;;;0.00;99.90;;;;;;5091188;28;20073;-62
2023/01/23 05:30:59;;;;;;;28.00;23.38;;;-0.10;99.90;;;;;;5092274;28;20067;-61
2023/01/23 05:33:24;;;;;;;28.10;23.55;;;-0.10;99.90;;;;;;5092781;28;20028;-61
2023/01/23 05:35:50;;;;;;;30.45;24.58;;;-0.10;99.90;;;;;;5092325;28;20048;-61
2023/01/23 05:38:16;;;;;;;30.00;24.63;;;-0.10;99.90;;;;;;5092319;28;20040;-62
2023/01/23 05:40:41;;;;;;;28.85;24.75;;;0.00;99.90;;;;;;5091923;28;20020;-62
2023/01/23 05:43:13;;;;;;;29.27;25.38;;;0.00;99.90;;;;;;5091565;28;20086;-62
2023/01/23 05:45:39;;;;;;;31.40;25.77;;;0.00;99.90;;;;;;5092301;28;20020;-61
2023/01/23 05:48:04;;;;;;;30.13;24.48;;;0.00;99.90;;;;;;5092442;28;20485;-61
2023/01/23 05:50:30;;;;;;;35.85;25.02;;;-0.10;99.90;;;;;;5092130;28;20024;-61
2023/01/23 05:52:56;;;;;;;45.78;36.95;;;0.00;99.90;;;;;;5091976;28;20020;-61
2023/01/23 05:55:22;;;;;;;39.45;33.35;;;0.00;99.90;;;;;;5091719;28;20055;-61
2023/01/23 05:57:47;;;;;;;32.50;27.60;;;0.00;99.90;;;;;;5092306;28;20060;-61
2023/01/23 06:00:14;;;;;;;35.28;27.08;;;0.00;99.90;;;;;;5092089;28;20465;-61
2023/01/23 06:02:42;;;;;;;33.72;26.92;;;0.00;99.90;;;;;;5092046;28;20032;-62
2023/01/23 06:05:08;;;;;;;33.92;27.10;;;0.00;99.90;;;;;;5091847;28;20031;-61
2023/01/23 06:07:35;;;;;;;36.10;28.20;;;0.00;99.90;;;;;;5091780;28;20048;-61
2023/01/23 06:10:00;;;;;;;36.00;29.70;;;0.10;99.90;;;;;;5091756;28;20052;-61
2023/01/23 06:12:26;;;;;;;34.65;29.15;;;0.10;99.90;;;;;;5091816;28;20028;-61
2023/01/23 06:14:52;;;;;;;36.30;28.42;;;0.10;99.90;;;;;;5091919;28;20099;-61
2023/01/23 06:17:17;;;;;;;33.08;28.17;;;0.10;99.90;;;;;;5091861;28;20029;-61
2023/01/23 06:19:43;;;;;;;33.75;28.80;;;0.10;99.90;;;;;;5092210;28;20077;-62
2023/01/23 06:22:09;;;;;;;34.55;27.95;;;0.10;99.90;;;;;;5091884;28;20051;-62
2023/01/23 06:24:34;;;;;;;32.75;27.33;;;0.10;99.90;;;;;;5091446;28;20024;-62
2023/01/23 06:27:02;;;;;;;35.25;27.60;;;0.10;99.90;;;;;;5091792;28;20027;-62
2023/01/23 06:29:28;;;;;;;33.33;27.67;;;0.20;99.90;;;;;;5092139;28;20035;-61
2023/01/23 06:31:53;;;;;;;34.20;28.08;;;0.20;99.90;;;;;;5091645;28;20028;-61
2023/01/23 06:34:19;;;;;;;36.40;29.73;;;0.20;99.90;;;;;;5091727;28;20034;-62
2023/01/23 06:36:46;;;;;;;37.42;30.02;;;0.30;99.90;;;;;;5092177;28;20020;-61
2023/01/23 06:39:14;;;;;;;35.88;29.38;;;0.20;99.90;;;;;;5091367;28;20036;-61
2023/01/23 06:41:40;;;;;;;35.13;29.83;;;0.20;99.90;;;;;;5091844;28;20404;-62
2023/01/23 06:44:06;;;;;;;37.85;29.95;;;0.20;99.90;;;;;;5091750;28;20396;-61
2023/01/23 06:46:32;;;;;;;35.85;29.40;;;0.20;99.90;;;;;;5091606;28;20020;-62
2023/01/23 06:48:58;;;;;;;37.65;31.42;;;0.20;99.90;;;;;;5091565;28;20028;-61
2023/01/23 06:51:24;;;;;;;36.35;29.95;;;0.20;99.90;;;;;;5091587;28;20028;-62
2023/01/23 06:53:50;;;;;;;33.72;27.88;;;0.20;99.90;;;;;;5092466;28;20056;-62
2023/01/23 06:56:15;;;;;;;32.33;27.45;;;0.20;99.90;;;;;;5095448;28;20154;-62
2023/01/23 06:58:44;;;;;;;35.13;27.88;;;0.20;99.90;;;;;;5094920;28;20136;-62
2023/01/23 07:01:14;;;;;;;36.03;28.50;;;0.20;99.90;;;;;;5095066;28;20024;-62
2023/01/23 07:03:40;;;;;;;33.58;27.77;;;0.20;99.90;;;;;;5095041;28;20480;-62
2023/01/23 07:06:07;;;;;;;34.72;29.02;;;0.10;99.90;;;;;;5095339;28;20103;-61
2023/01/23 07:08:33;;;;;;;34.22;28.95;;;0.10;99.90;;;;;;5094315;28;20503;-62
2023/01/23 07:11:00;;;;;;;34.05;28.20;;;0.10;99.90;;;;;;5094722;28;20051;-62
2023/01/23 07:13:26;;;;;;;32.83;27.65;;;0.10;99.90;;;;;;5094816;28;20059;-62
2023/01/23 07:15:52;;;;;;;31.90;26.30;;;0.10;99.90;;;;;;5094720;28;20035;-62
2023/01/23 07:18:17;;;;;;;31.58;26.58;;;0.10;99.90;;;;;;5095044;28;20032;-62
2023/01/23 07:20:44;;;;;;;31.10;27.35;;;0.10;99.90;;;;;;5094648;28;20024;-61
2023/01/23 07:23:10;;;;;;;33.85;28.65;;;0.20;99.90;;;;;;5094513;28;20035;-62
2023/01/23 07:25:36;;;;;;;32.65;28.52;;;0.20;99.90;;;;;;5094478;28;20037;-62
2023/01/23 07:28:01;;;;;;;30.95;27.10;;;0.20;99.90;;;;;;5094656;28;20024;-62
2023/01/23 07:30:28;;;;;;;30.42;26.60;;;0.20;99.90;;;;;;5094600;28;20024;-60
2023/01/23 07:32:53;;;;;;;33.95;29.50;;;0.20;99.90;;;;;;5094473;28;20055;-62
2023/01/23 07:35:20;;;;;;;32.45;28.98;;;0.20;99.90;;;;;;5093537;28;20664;-62
2023/01/23 07:37:46;;;;;;;32.15;27.48;;;0.20;99.90;;;;;;5093388;28;20036;-62
2023/01/23 07:40:12;;;;;;;32.42;27.35;;;0.20;99.90;;;;;;5094234;28;20043;-62
2023/01/23 07:42:38;;;;;;;31.98;27.50;;;0.20;99.90;;;;;;5094890;28;20039;-63
2023/01/23 07:45:05;;;;;;;34.72;29.35;;;0.20;99.90;;;;;;5094250;28;20032;-62
2023/01/23 07:47:31;;;;;;;33.72;29.20;;;0.20;99.90;;;;;;5094092;28;20035;-62
2023/01/23 07:49:57;;;;;;;30.77;27.40;;;0.20;99.90;;;;;;5093047;28;20016;-62
2023/01/23 07:52:23;;;;;;;33.95;28.48;;;0.20;99.90;;;;;;5093849;28;20713;-61
2023/01/23 07:54:48;;;;;;;29.10;25.17;;;0.30;99.90;;;;;;5093900;28;20154;-61
2023/01/23 07:57:14;;;;;;;33.17;27.90;;;0.40;99.90;;;;;;5094091;28;20555;-62
2023/01/23 07:59:40;;;;;;;33.10;26.90;;;0.30;99.90;;;;;;5093893;28;20024;-62
2023/01/23 08:02:07;;;;;;;32.15;27.40;;;0.40;99.90;;;;;;5093636;28;20400;-60
2023/01/23 08:04:33;;;;;;;38.15;31.55;;;0.40;99.90;;;;;;5093992;28;20070;-61
2023/01/23 08:06:58;;;;;;;40.22;32.60;;;0.40;99.90;;;;;;5092552;28;20431;-61
2023/01/23 08:09:24;;;;;;;34.67;30.98;;;0.40;99.90;;;;;;5093306;28;20447;-61
2023/01/23 08:11:51;;;;;;;35.85;30.23;;;0.50;99.90;;;;;;5093737;28;20028;-61
2023/01/23 08:14:17;;;;;;;31.13;27.10;;;0.50;99.90;;;;;;5093548;28;20389;-62
2023/01/23 08:16:42;;;;;;;31.00;25.17;;;0.50;99.90;;;;;;5093462;28;20027;-63
2023/01/23 08:19:08;;;;;;;29.25;26.15;;;0.60;99.90;;;;;;5093499;28;20077;-60
2023/01/23 08:21:35;;;;;;;27.90;24.13;;;0.60;99.90;;;;;;5093233;28;20528;-62
2023/01/23 08:24:01;;;;;;;27.42;24.25;;;0.60;99.90;;;;;;5093223;28;20030;-61
2023/01/23 08:26:27;;;;;;;30.67;26.17;;;0.60;99.90;;;;;;5093525;28;20028;-62
2023/01/23 08:28:53;;;;;;;28.88;25.17;;;0.60;99.90;;;;;;5092690;28;20106;-61
2023/01/23 08:31:18;;;;;;;29.25;23.92;;;0.70;99.90;;;;;;5092989;28;20024;-62
2023/01/23 08:33:44;;;;;;;31.08;24.15;;;0.70;99.90;;;;;;5093371;28;20111;-63
2023/01/23 08:36:12;;;;;;;33.78;22.13;;;0.80;99.90;;;;;;5091791;28;20392;-62
2023/01/23 08:38:38;;;;;;;53.35;42.33;;;0.80;99.90;;;;;;5093378;28;20403;-62
2023/01/23 08:41:04;;;;;;;98.55;67.03;;;0.80;99.90;;;;;;5093243;28;20047;-63
2023/01/23 08:43:31;;;;;;;38.50;25.35;;;0.90;99.90;;;;;;5092862;28;20028;-63
2023/01/23 08:45:57;;;;;;;147.85;90.72;;;1.00;99.90;;;;;;5093046;28;20356;-62
2023/01/23 08:48:24;;;;;;;73.35;46.55;;;1.00;99.90;;;;;;5093390;28;20032;-62
2023/01/23 08:50:57;;;;;;;31.25;24.45;;;1.00;99.90;;;;;;5092647;28;20032;-62
2023/01/23 08:53:22;;;;;;;29.85;24.63;;;1.00;99.90;;;;;;5092977;28;20443;-62
2023/01/23 08:55:48;;;;;;;27.25;24.13;;;1.00;99.90;;;;;;5092599;28;20081;-62
2023/01/23 08:58:14;;;;;;;24.65;22.08;;;1.00;99.90;;;;;;5092678;28;20412;-63
2023/01/23 09:00:40;;;;;;;30.63;26.30;;;1.10;99.90;;;;;;5092179;28;20035;-62
2023/01/23 09:03:06;;;;;;;26.13;22.45;;;1.10;99.90;;;;;;5090949;28;20035;-62
2023/01/23 09:05:31;;;;;;;23.63;20.70;;;1.10;99.90;;;;;;5091960;28;20020;-63
2023/01/23 09:07:58;;;;;;;23.50;20.95;;;1.20;99.90;;;;;;5091967;28;20040;-62
2023/01/23 09:10:24;;;;;;;24.60;22.02;;;1.20;99.90;;;;;;5092219;28;20060;-63
2023/01/23 09:12:52;;;;;;;29.58;25.58;;;1.20;99.90;;;;;;5092404;28;20035;-63
2023/01/23 09:15:17;;;;;;;29.38;25.42;;;1.20;99.90;;;;;;5092181;28;20024;-62
2023/01/23 09:17:43;;;;;;;23.42;21.02;;;1.20;99.90;;;;;;5091559;28;20089;-63
2023/01/23 09:20:10;;;;;;;23.08;20.67;;;1.30;99.90;;;;;;5092497;28;20550;-62
2023/01/23 09:22:35;;;;;;;22.23;19.17;;;1.30;99.90;;;;;;5092573;28;20024;-62
2023/01/23 09:25:01;;;;;;;22.23;19.83;;;1.30;99.90;;;;;;5092531;28;20046;-62
2023/01/23 09:27:27;;;;;;;29.98;22.25;;;1.40;99.90;;;;;;5092739;28;20027;-62
2023/01/23 09:29:52;;;;;;;26.77;22.92;;;1.50;99.90;;;;;;5091144;28;20036;-62
2023/01/23 09:32:18;;;;;;;31.13;27.73;;;1.60;99.90;;;;;;5092352;28;20107;-62
2023/01/23 09:34:47;;;;;;;30.65;27.20;;;1.70;99.90;;;;;;5091813;28;20036;-62
2023/01/23 09:37:14;;;;;;;35.58;30.73;;;1.80;99.90;;;;;;5092656;28;20023;-62
2023/01/23 09:39:44;;;;;;;31.55;27.77;;;1.80;99.90;;;;;;5092413;28;20077;-62
2023/01/23 09:42:33;;;;;;;38.15;34.05;;;1.80;99.90;;;;;;5092267;28;20016;-63
2023/01/23 09:45:04;;;;;;;29.35;25.23;;;1.80;99.90;;;;;;5092030;28;20031;-62
2023/01/23 09:47:52;;;;;;;27.30;24.25;;;1.90;99.90;;;;;;5091761;28;20057;-62
2023/01/23 09:50:24;;;;;;;23.35;20.73;;;2.00;99.90;;;;;;5092178;28;20427;-62
2023/01/23 09:53:12;;;;;;;25.67;23.02;;;2.00;99.90;;;;;;5092527;28;20028;-62
2023/01/23 09:55:48;;;;;;;24.58;21.98;;;2.00;99.90;;;;;;5091877;28;20038;-62
2023/01/23 09:58:42;;;;;;;23.17;20.77;;;2.00;99.90;;;;;;5092056;28;20427;-62
2023/01/23 10:01:14;;;;;;;23.10;20.80;;;2.10;99.90;;;;;;5092463;28;20021;-62
2023/01/23 10:03:40;;;;;;;21.48;19.17;;;2.20;99.90;;;;;;5091881;28;20027;-62
2023/01/23 10:06:06;;;;;;;21.40;19.30;;;2.20;99.90;;;;;;5092013;28;20104;-62
2023/01/23 10:08:31;;;;;;;21.52;18.90;;;2.10;99.90;;;;;;5091861;28;20166;-62
2023/01/23 10:11:06;;;;;;;21.77;19.48;;;2.20;99.90;;;;;;5091784;28;20569;-62
2023/01/23 10:14:05;;;;;;;21.75;19.42;;;2.20;99.90;;;;;;5091884;28;20055;-62
2023/01/23 10:16:34;;;;;;;22.52;20.15;;;2.10;99.90;;;;;;5090314;28;20498;-62
2023/01/23 10:19:14;;;;;;;21.52;19.25;;;2.20;99.90;;;;;;5091958;28;20110;-62
2023/01/23 10:21:50;;;;;;;21.00;18.52;;;2.30;99.90;;;;;;5092021;28;20027;-62
2023/01/23 10:24:41;;;;;;;24.60;21.85;;;2.30;99.90;;;;;;5091564;28;20043;-62
2023/01/23 10:27:30;;;;;;;24.40;22.00;;;2.40;99.90;;;;;;5092050;28;20434;-62
2023/01/23 10:30:04;;;;;;;23.83;21.30;;;2.50;99.90;;;;;;5088666;28;20075;-62
2023/01/23 10:32:36;;;;;;;22.77;20.38;;;2.40;99.90;;;;;;5095443;28;20024;-62
2023/01/23 10:35:16;;;;;;;23.48;21.00;;;2.60;99.90;;;;;;5095759;28;20020;-62
2023/01/23 10:37:51;;;;;;;25.23;22.60;;;2.60;99.90;;;;;;5095494;28;20202;-62
2023/01/23 10:41:12;;;;;;;22.88;20.35;;;2.60;99.90;;;;;;5095678;28;20101;-62
2023/01/23 10:43:20;;;;;;;21.35;19.13;;;2.60;99.90;;;;;;5095371;28;20426;-62
2023/01/23 10:45:47;;;;;;;27.83;25.10;;;2.50;99.90;;;;;;5095093;28;20020;-62
2023/01/23 10:48:33;;;;;;;33.85;30.30;;;2.70;99.90;;;;;;5095274;28;20095;-62
2023/01/23 10:50:59;;;;;;;23.77;21.15;;;2.80;99.90;;;;;;5095285;28;20384;-62
2023/01/23 10:53:26;;;;;;;21.77;19.55;;;2.50;99.90;;;;;;5095614;28;20031;-62
2023/01/23 10:55:58;;;;;;;25.63;23.02;;;2.60;99.90;;;;;;5095160;28;20443;-62
2023/01/23 10:58:37;;;;;;;22.55;20.23;;;2.60;99.90;;;;;;5095066;28;20085;-62
2023/01/23 11:01:04;;;;;;;24.05;21.75;;;2.70;99.90;;;;;;5095164;28;20103;-62
2023/01/23 11:03:33;;;;;;;22.90;20.63;;;2.80;99.90;;;;;;5095050;28;20032;-62
2023/01/23 11:06:08;;;;;;;21.60;19.40;;;2.60;99.90;;;;;;5094983;28;20069;-62
2023/01/23 11:08:37;;;;;;;22.60;20.30;;;2.50;99.90;;;;;;5094735;28;20484;-62
2023/01/23 11:11:14;;;;;;;22.55;20.10;;;2.50;99.90;;;;;;5094773;28;20040;-62
2023/01/23 11:13:42;;;;;;;23.10;20.65;;;2.50;99.90;;;;;;5094777;28;20035;-62
2023/01/23 11:16:20;;;;;;;29.83;25.67;;;2.40;99.90;;;;;;5094469;28;20423;-62
2023/01/23 11:19:06;;;;;;;23.05;20.58;;;2.60;99.90;;;;;;5094570;28;20020;-62
2023/01/23 11:21:34;;;;;;;25.75;23.05;;;2.60;99.90;;;;;;5087104;28;20036;-62
2023/01/23 11:24:18;;;;;;;28.00;25.15;;;2.70;99.90;;;;;;5094967;28;20024;-62
2023/01/23 11:26:44;;;;;;;23.15;20.80;;;2.60;99.90;;;;;;5094498;28;20027;-62
2023/01/23 11:29:25;;;;;;;26.35;23.55;;;2.60;99.90;;;;;;5094164;28;20123;-62
2023/01/23 11:31:58;;;;;;;25.60;22.92;;;2.60;99.90;;;;;;5094332;28;20024;-62
2023/01/23 11:34:30;;;;;;;36.58;31.75;;;2.70;99.90;;;;;;5094461;28;20054;-62
2023/01/23 11:37:04;;;;;;;28.63;25.52;;;2.80;99.90;;;;;;5094291;28;20055;-62
2023/01/23 11:39:45;;;;;;;28.48;25.42;;;2.80;99.90;;;;;;5094074;28;20028;-62
2023/01/23 11:42:12;;;;;;;40.40;32.85;;;2.80;99.90;;;;;;5094193;28;20077;-62
2023/01/23 11:44:40;;;;;;;26.95;24.02;;;2.90;99.90;;;;;;5093748;28;20380;-62
2023/01/23 11:47:05;;;;;;;26.25;23.73;;;2.80;99.90;;;;;;5094161;28;20480;-62
2023/01/23 11:49:40;;;;;;;34.65;30.65;;;2.90;99.90;;;;;;5094210;28;20028;-62
2023/01/23 11:52:37;;;;;;;28.48;25.48;;;3.10;99.90;;;;;;5094058;28;20391;-62
2023/01/23 11:55:38;;;;;;;27.52;24.50;;;3.10;99.90;;;;;;5094043;28;20039;-62
2023/01/23 11:58:41;;;;;;;23.55;20.73;;;3.00;99.90;;;;;;5093497;28;20404;-62
2023/01/23 12:01:38;;;;;;;35.03;29.17;;;3.00;99.90;;;;;;5093869;28;20085;-62
2023/01/23 12:04:10;;;;;;;29.35;26.10;;;3.10;99.90;;;;;;5093840;28;20027;-62
2023/01/23 12:06:58;;;;;;;27.80;24.30;;;3.50;99.90;;;;;;5094035;28;20567;-62
2023/01/23 12:09:53;;;;;;;22.52;20.23;;;3.60;99.90;;;;;;5087581;28;20035;-62
2023/01/23 12:12:33;;;;;;;25.60;22.35;;;3.50;99.90;;;;;;5050870;28;20033;-62
2023/01/23 12:15:26;;;;;;;23.58;21.27;;;3.30;99.90;;;;;;5051001;28;20089;-62
2023/01/23 12:18:17;;;;;;;22.60;20.30;;;3.30;99.90;;;;;;5050904;28;20057;-62
2023/01/23 12:20:57;;;;;;;22.35;20.13;;;3.40;99.90;;;;;;5051072;28;20448;-62
2023/01/23 12:23:44;;;;;;;21.90;19.70;;;3.30;99.90;;;;;;5050884;28;20029;-62
2023/01/23 12:26:11;;;;;;;24.23;21.83;;;3.40;99.90;;;;;;5050975;28;20123;-62
2023/01/23 12:28:55;;;;;;;22.40;20.02;;;3.40;99.90;;;;;;5050499;28;20053;-62
2023/01/23 12:31:32;;;;;;;24.85;22.33;;;3.40;99.90;;;;;;5051291;28;20045;-62
2023/01/23 12:34:18;;;;;;;23.73;21.17;;;3.50;99.90;;;;;;5050830;28;20115;-62
2023/01/23 12:37:13;;;;;;;24.02;21.60;;;3.70;99.90;;;;;;5050763;28;20132;-62
2023/01/23 12:39:47;;;;;;;25.35;22.75;;;3.60;99.90;;;;;;5050668;28;20033;-61
2023/01/23 12:42:24;;;;;;;26.58;23.90;;;3.60;99.90;;;;;;5050049;28;20128;-61
2023/01/23 12:45:18;;;;;;;31.25;27.95;;;3.70;99.90;;;;;;5050426;28;20107;-62
2023/01/23 12:47:57;;;;;;;21.52;19.42;;;3.90;99.90;;;;;;5049813;28;20049;-62
2023/01/23 12:50:44;;;;;;;23.55;21.15;;;3.60;99.90;;;;;;5070941;28;20086;-63
2023/01/23 12:53:20;;;;;;;25.48;21.98;;;3.80;99.90;;;;;;5072577;28;20174;-62